sensor_id;sensor_type;location;lat;lon;timestamp;P1;durP1;ratioP1;P2;durP2;ratioP2
38117;SDS011;23928;47.562;7.508;2023-12-04T00:02:10;28.50;;;13.63;;
38117;SDS011;23928;47.562;7.508;2023-12-04T00:04:35;28.33;;;14.00;;
38117;SDS011;23928;47.562;7.508;2023-12-04T00:07:01;34.83;;;14.83;;
38117;SDS011;23928;47.562;7.508;2023-12-04T00:09:27;30.27;;;14.30;;
38117;SDS011;23928;47.562;7.508;2023-12-04T00:11:53;31.63;;;14.83;;
38117;SDS011;23928;47.562;7.508;2023-12-04T00:14:18;29.67;;;14.47;;
38117;SDS011;23928;47.562;7.508;2023-12-04T00:16:44;31.53;;;14.03;;
38117;SDS011;23928;47.562;7.508;2023-12-04T00:19:09;32.13;;;14.27;;
38117;SDS011;23928;47.562;7.508;2023-12-04T00:21:35;30.87;;;14.43;;
38117;SDS011;23928;47.562;7.508;2023-12-04T00:24:01;33.50;;;14.63;;
38117;SDS011;23928;47.562;7.508;2023-12-04T00:26:26;30.00;;;13.47;;
38117;SDS011;23928;47.562;7.508;2023-12-04T00:28:52;36.50;;;16.27;;
38117;SDS011;23928;47.562;7.508;2023-12-04T00:31:17;33.37;;;15.43;;
38117;SDS011;23928;47.562;7.508;2023-12-04T00:33:43;32.97;;;15.47;;
38117;SDS011;23928;47.562;7.508;2023-12-04T00:36:09;35.87;;;16.37;;
38117;SDS011;23928;47.562;7.508;2023-12-04T00:38:35;33.33;;;14.27;;
38117;SDS011;23928;47.562;7.508;2023-12-04T00:41:00;37.00;;;15.73;;
38117;SDS011;23928;47.562;7.508;2023-12-04T00:43:26;33.43;;;14.43;;
38117;SDS011;23928;47.562;7.508;2023-12-04T00:45:52;38.57;;;15.50;;
38117;SDS011;23928;47.562;7.508;2023-12-04T00:48:17;38.77;;;14.73;;
38117;SDS011;23928;47.562;7.508;2023-12-04T00:50:43;33.23;;;14.17;;
38117;SDS011;23928;47.562;7.508;2023-12-04T00:53:08;36.30;;;15.30;;
38117;SDS011;23928;47.562;7.508;2023-12-04T00:55:34;35.53;;;15.07;;
38117;SDS011;23928;47.562;7.508;2023-12-04T00:57:59;33.63;;;16.03;;
38117;SDS011;23928;47.562;7.508;2023-12-04T01:00:25;35.50;;;16.50;;
38117;SDS011;23928;47.562;7.508;2023-12-04T01:02:51;33.47;;;15.37;;
38117;SDS011;23928;47.562;7.508;2023-12-04T01:05:16;37.23;;;15.33;;
38117;SDS011;23928;47.562;7.508;2023-12-04T01:07:42;32.37;;;14.20;;
38117;SDS011;23928;47.562;7.508;2023-12-04T01:10:08;33.33;;;15.37;;
38117;SDS011;23928;47.562;7.508;2023-12-04T01:12:34;34.47;;;15.73;;
38117;SDS011;23928;47.562;7.508;2023-12-04T01:15:00;33.03;;;15.97;;
38117;SDS011;23928;47.562;7.508;2023-12-04T01:17:26;33.00;;;15.93;;
38117;SDS011;23928;47.562;7.508;2023-12-04T01:19:52;30.90;;;14.43;;
38117;SDS011;23928;47.562;7.508;2023-12-04T01:22:18;38.30;;;16.17;;
38117;SDS011;23928;47.562;7.508;2023-12-04T01:24:43;30.73;;;13.50;;
38117;SDS011;23928;47.562;7.508;2023-12-04T01:27:09;33.23;;;15.10;;
38117;SDS011;23928;47.562;7.508;2023-12-04T01:29:35;34.43;;;15.30;;
38117;SDS011;23928;47.562;7.508;2023-12-04T01:32:01;31.93;;;15.53;;
38117;SDS011;23928;47.562;7.508;2023-12-04T01:34:27;35.03;;;15.53;;
38117;SDS011;23928;47.562;7.508;2023-12-04T01:36:52;34.07;;;15.63;;
38117;SDS011;23928;47.562;7.508;2023-12-04T01:39:18;32.27;;;14.53;;
38117;SDS011;23928;47.562;7.508;2023-12-04T01:41:43;33.90;;;14.60;;
38117;SDS011;23928;47.562;7.508;2023-12-04T01:44:09;33.70;;;14.97;;
38117;SDS011;23928;47.562;7.508;2023-12-04T01:46:35;32.80;;;15.07;;
38117;SDS011;23928;47.562;7.508;2023-12-04T01:49:01;33.37;;;15.60;;
38117;SDS011;23928;47.562;7.508;2023-12-04T01:51:28;34.90;;;14.77;;
38117;SDS011;23928;47.562;7.508;2023-12-04T01:53:54;32.17;;;14.30;;
38117;SDS011;23928;47.562;7.508;2023-12-04T01:56:23;35.13;;;15.73;;
38117;SDS011;23928;47.562;7.508;2023-12-04T01:58:48;36.67;;;16.20;;
38117;SDS011;23928;47.562;7.508;2023-12-04T02:01:14;30.37;;;14.93;;
38117;SDS011;23928;47.562;7.508;2023-12-04T02:03:40;35.93;;;14.97;;
38117;SDS011;23928;47.562;7.508;2023-12-04T02:06:06;34.10;;;15.40;;
38117;SDS011;23928;47.562;7.508;2023-12-04T02:08:33;34.97;;;15.27;;
38117;SDS011;23928;47.562;7.508;2023-12-04T02:11:00;32.33;;;14.23;;
38117;SDS011;23928;47.562;7.508;2023-12-04T02:13:26;36.67;;;14.87;;
38117;SDS011;23928;47.562;7.508;2023-12-04T02:15:53;40.40;;;15.87;;
38117;SDS011;23928;47.562;7.508;2023-12-04T02:18:20;32.90;;;16.13;;
38117;SDS011;23928;47.562;7.508;2023-12-04T02:20:47;33.37;;;15.97;;
38117;SDS011;23928;47.562;7.508;2023-12-04T02:23:13;34.37;;;15.00;;
38117;SDS011;23928;47.562;7.508;2023-12-04T02:25:38;35.77;;;15.83;;
38117;SDS011;23928;47.562;7.508;2023-12-04T02:28:07;36.80;;;16.13;;
38117;SDS011;23928;47.562;7.508;2023-12-04T02:30:36;34.80;;;15.87;;
38117;SDS011;23928;47.562;7.508;2023-12-04T02:33:03;35.87;;;14.53;;
38117;SDS011;23928;47.562;7.508;2023-12-04T02:35:31;34.17;;;15.67;;
38117;SDS011;23928;47.562;7.508;2023-12-04T02:37:59;35.20;;;16.67;;
38117;SDS011;23928;47.562;7.508;2023-12-04T02:40:26;31.80;;;15.03;;
38117;SDS011;23928;47.562;7.508;2023-12-04T02:42:52;31.63;;;13.10;;
38117;SDS011;23928;47.562;7.508;2023-12-04T02:45:17;32.93;;;15.00;;
38117;SDS011;23928;47.562;7.508;2023-12-04T02:47:43;31.17;;;14.20;;
38117;SDS011;23928;47.562;7.508;2023-12-04T02:50:08;31.67;;;14.77;;
38117;SDS011;23928;47.562;7.508;2023-12-04T02:52:34;33.83;;;14.80;;
38117;SDS011;23928;47.562;7.508;2023-12-04T02:55:00;36.87;;;15.13;;
38117;SDS011;23928;47.562;7.508;2023-12-04T02:57:25;30.70;;;14.43;;
38117;SDS011;23928;47.562;7.508;2023-12-04T02:59:51;28.87;;;13.97;;
38117;SDS011;23928;47.562;7.508;2023-12-04T03:02:17;31.20;;;14.17;;
38117;SDS011;23928;47.562;7.508;2023-12-04T03:04:42;33.73;;;13.87;;
38117;SDS011;23928;47.562;7.508;2023-12-04T03:07:08;32.33;;;14.70;;
38117;SDS011;23928;47.562;7.508;2023-12-04T03:09:33;36.20;;;14.63;;
38117;SDS011;23928;47.562;7.508;2023-12-04T03:11:59;28.77;;;13.83;;
38117;SDS011;23928;47.562;7.508;2023-12-04T03:14:24;33.00;;;14.17;;
38117;SDS011;23928;47.562;7.508;2023-12-04T03:16:50;32.77;;;14.10;;
38117;SDS011;23928;47.562;7.508;2023-12-04T03:19:15;30.10;;;12.80;;
38117;SDS011;23928;47.562;7.508;2023-12-04T03:21:41;36.33;;;15.33;;
38117;SDS011;23928;47.562;7.508;2023-12-04T03:24:07;30.73;;;13.83;;
38117;SDS011;23928;47.562;7.508;2023-12-04T03:26:32;29.63;;;13.27;;
38117;SDS011;23928;47.562;7.508;2023-12-04T03:28:58;30.63;;;13.50;;
38117;SDS011;23928;47.562;7.508;2023-12-04T03:31:23;32.27;;;14.77;;
38117;SDS011;23928;47.562;7.508;2023-12-04T03:33:50;33.90;;;14.03;;
38117;SDS011;23928;47.562;7.508;2023-12-04T03:36:15;30.37;;;14.10;;
38117;SDS011;23928;47.562;7.508;2023-12-04T03:38:41;34.63;;;14.50;;
38117;SDS011;23928;47.562;7.508;2023-12-04T03:41:16;29.10;;;13.47;;
38117;SDS011;23928;47.562;7.508;2023-12-04T03:43:42;30.00;;;12.57;;
38117;SDS011;23928;47.562;7.508;2023-12-04T03:46:07;36.47;;;15.53;;
38117;SDS011;23928;47.562;7.508;2023-12-04T03:48:33;29.80;;;13.33;;
38117;SDS011;23928;47.562;7.508;2023-12-04T03:50:59;32.60;;;15.10;;
38117;SDS011;23928;47.562;7.508;2023-12-04T03:53:25;31.60;;;13.87;;
38117;SDS011;23928;47.562;7.508;2023-12-04T03:55:51;32.83;;;14.30;;
38117;SDS011;23928;47.562;7.508;2023-12-04T03:58:17;35.87;;;15.80;;
38117;SDS011;23928;47.562;7.508;2023-12-04T04:00:43;35.43;;;14.60;;
38117;SDS011;23928;47.562;7.508;2023-12-04T04:03:09;35.53;;;14.83;;
38117;SDS011;23928;47.562;7.508;2023-12-04T04:05:35;31.37;;;14.23;;
38117;SDS011;23928;47.562;7.508;2023-12-04T04:08:01;32.83;;;14.33;;
38117;SDS011;23928;47.562;7.508;2023-12-04T04:10:27;36.33;;;15.70;;
38117;SDS011;23928;47.562;7.508;2023-12-04T04:12:52;34.10;;;14.17;;
38117;SDS011;23928;47.562;7.508;2023-12-04T04:15:18;31.03;;;15.77;;
38117;SDS011;23928;47.562;7.508;2023-12-04T04:17:43;34.90;;;16.37;;
38117;SDS011;23928;47.562;7.508;2023-12-04T04:20:09;34.87;;;14.47;;
38117;SDS011;23928;47.562;7.508;2023-12-04T04:22:37;36.57;;;14.90;;
38117;SDS011;23928;47.562;7.508;2023-12-04T04:25:05;37.53;;;15.53;;
38117;SDS011;23928;47.562;7.508;2023-12-04T04:27:31;30.73;;;13.63;;
38117;SDS011;23928;47.562;7.508;2023-12-04T04:29:57;34.57;;;14.27;;
38117;SDS011;23928;47.562;7.508;2023-12-04T04:32:22;34.23;;;14.67;;
38117;SDS011;23928;47.562;7.508;2023-12-04T04:34:48;29.80;;;13.33;;
38117;SDS011;23928;47.562;7.508;2023-12-04T04:37:14;31.13;;;14.50;;
38117;SDS011;23928;47.562;7.508;2023-12-04T04:39:40;36.70;;;14.97;;
38117;SDS011;23928;47.562;7.508;2023-12-04T04:42:05;39.47;;;15.83;;
38117;SDS011;23928;47.562;7.508;2023-12-04T04:44:31;36.27;;;16.23;;
38117;SDS011;23928;47.562;7.508;2023-12-04T04:46:56;37.30;;;15.20;;
38117;SDS011;23928;47.562;7.508;2023-12-04T04:49:22;41.30;;;15.63;;
38117;SDS011;23928;47.562;7.508;2023-12-04T04:51:48;34.57;;;15.00;;
38117;SDS011;23928;47.562;7.508;2023-12-04T04:54:13;36.10;;;14.57;;
38117;SDS011;23928;47.562;7.508;2023-12-04T04:56:39;33.53;;;14.87;;
38117;SDS011;23928;47.562;7.508;2023-12-04T04:59:04;35.20;;;15.60;;
38117;SDS011;23928;47.562;7.508;2023-12-04T05:01:30;40.83;;;16.87;;
38117;SDS011;23928;47.562;7.508;2023-12-04T05:03:56;37.63;;;14.93;;
38117;SDS011;23928;47.562;7.508;2023-12-04T05:06:21;36.00;;;15.33;;
38117;SDS011;23928;47.562;7.508;2023-12-04T05:08:49;33.80;;;14.10;;
38117;SDS011;23928;47.562;7.508;2023-12-04T05:11:17;39.00;;;16.53;;
38117;SDS011;23928;47.562;7.508;2023-12-04T05:13:44;34.77;;;14.63;;
38117;SDS011;23928;47.562;7.508;2023-12-04T05:16:10;37.03;;;15.50;;
38117;SDS011;23928;47.562;7.508;2023-12-04T05:18:35;34.40;;;14.13;;
38117;SDS011;23928;47.562;7.508;2023-12-04T05:21:01;41.13;;;16.27;;
38117;SDS011;23928;47.562;7.508;2023-12-04T05:23:26;34.87;;;13.87;;
38117;SDS011;23928;47.562;7.508;2023-12-04T05:25:52;31.67;;;14.73;;
38117;SDS011;23928;47.562;7.508;2023-12-04T05:28:17;32.90;;;13.57;;
38117;SDS011;23928;47.562;7.508;2023-12-04T05:30:43;35.23;;;15.90;;
38117;SDS011;23928;47.562;7.508;2023-12-04T05:33:09;35.63;;;15.87;;
38117;SDS011;23928;47.562;7.508;2023-12-04T05:35:34;35.57;;;14.93;;
38117;SDS011;23928;47.562;7.508;2023-12-04T05:38:01;38.20;;;15.63;;
38117;SDS011;23928;47.562;7.508;2023-12-04T05:40:27;36.00;;;15.20;;
38117;SDS011;23928;47.562;7.508;2023-12-04T05:42:52;35.07;;;14.40;;
38117;SDS011;23928;47.562;7.508;2023-12-04T05:45:18;34.77;;;15.00;;
38117;SDS011;23928;47.562;7.508;2023-12-04T05:47:43;34.30;;;14.63;;
38117;SDS011;23928;47.562;7.508;2023-12-04T05:50:09;37.20;;;14.87;;
38117;SDS011;23928;47.562;7.508;2023-12-04T05:52:35;37.80;;;15.40;;
38117;SDS011;23928;47.562;7.508;2023-12-04T05:55:00;36.60;;;15.93;;
38117;SDS011;23928;47.562;7.508;2023-12-04T05:57:26;33.47;;;15.03;;
38117;SDS011;23928;47.562;7.508;2023-12-04T05:59:51;33.23;;;14.70;;
38117;SDS011;23928;47.562;7.508;2023-12-04T06:02:17;35.83;;;16.43;;
38117;SDS011;23928;47.562;7.508;2023-12-04T06:04:42;31.83;;;15.10;;
38117;SDS011;23928;47.562;7.508;2023-12-04T06:07:08;34.83;;;14.40;;
38117;SDS011;23928;47.562;7.508;2023-12-04T06:09:34;39.27;;;16.37;;
38117;SDS011;23928;47.562;7.508;2023-12-04T06:12:02;35.50;;;16.07;;
38117;SDS011;23928;47.562;7.508;2023-12-04T06:14:32;37.10;;;16.80;;
38117;SDS011;23928;47.562;7.508;2023-12-04T06:16:58;33.10;;;15.70;;
38117;SDS011;23928;47.562;7.508;2023-12-04T06:19:24;33.93;;;15.47;;
38117;SDS011;23928;47.562;7.508;2023-12-04T06:21:50;39.10;;;15.57;;
38117;SDS011;23928;47.562;7.508;2023-12-04T06:24:15;36.10;;;15.87;;
38117;SDS011;23928;47.562;7.508;2023-12-04T06:26:41;36.53;;;16.40;;
38117;SDS011;23928;47.562;7.508;2023-12-04T06:29:10;36.37;;;14.83;;
38117;SDS011;23928;47.562;7.508;2023-12-04T06:31:36;41.97;;;15.97;;
38117;SDS011;23928;47.562;7.508;2023-12-04T06:34:02;39.00;;;15.70;;
38117;SDS011;23928;47.562;7.508;2023-12-04T06:36:28;33.77;;;16.10;;
38117;SDS011;23928;47.562;7.508;2023-12-04T06:38:56;37.30;;;15.80;;
38117;SDS011;23928;47.562;7.508;2023-12-04T06:41:24;38.57;;;15.47;;
38117;SDS011;23928;47.562;7.508;2023-12-04T06:43:50;71.27;;;35.00;;
38117;SDS011;23928;47.562;7.508;2023-12-04T06:46:16;35.80;;;16.33;;
38117;SDS011;23928;47.562;7.508;2023-12-04T06:48:45;39.03;;;15.57;;
38117;SDS011;23928;47.562;7.508;2023-12-04T06:51:13;34.10;;;15.40;;
38117;SDS011;23928;47.562;7.508;2023-12-04T06:53:39;38.63;;;15.80;;
38117;SDS011;23928;47.562;7.508;2023-12-04T06:56:05;32.33;;;15.60;;
38117;SDS011;23928;47.562;7.508;2023-12-04T06:58:31;36.10;;;15.07;;
38117;SDS011;23928;47.562;7.508;2023-12-04T07:00:56;42.63;;;17.50;;
38117;SDS011;23928;47.562;7.508;2023-12-04T07:03:22;37.17;;;16.80;;
38117;SDS011;23928;47.562;7.508;2023-12-04T07:05:48;39.97;;;15.97;;
38117;SDS011;23928;47.562;7.508;2023-12-04T07:08:14;42.63;;;18.27;;
38117;SDS011;23928;47.562;7.508;2023-12-04T07:10:40;44.03;;;21.47;;
38117;SDS011;23928;47.562;7.508;2023-12-04T07:13:05;33.97;;;15.27;;
38117;SDS011;23928;47.562;7.508;2023-12-04T07:15:31;38.07;;;16.73;;
38117;SDS011;23928;47.562;7.508;2023-12-04T07:17:56;40.07;;;17.30;;
38117;SDS011;23928;47.562;7.508;2023-12-04T07:20:22;33.43;;;14.33;;
38117;SDS011;23928;47.562;7.508;2023-12-04T07:22:49;34.67;;;15.93;;
38117;SDS011;23928;47.562;7.508;2023-12-04T07:25:14;35.43;;;15.73;;
38117;SDS011;23928;47.562;7.508;2023-12-04T07:27:41;36.77;;;15.63;;
38117;SDS011;23928;47.562;7.508;2023-12-04T07:30:07;33.40;;;15.17;;
38117;SDS011;23928;47.562;7.508;2023-12-04T07:32:33;38.00;;;18.00;;
38117;SDS011;23928;47.562;7.508;2023-12-04T07:35:00;35.33;;;16.23;;
38117;SDS011;23928;47.562;7.508;2023-12-04T07:37:25;32.97;;;16.17;;
38117;SDS011;23928;47.562;7.508;2023-12-04T07:39:51;35.10;;;15.57;;
38117;SDS011;23928;47.562;7.508;2023-12-04T07:42:17;45.93;;;20.70;;
38117;SDS011;23928;47.562;7.508;2023-12-04T07:44:42;41.57;;;19.97;;
38117;SDS011;23928;47.562;7.508;2023-12-04T07:47:08;75.00;;;34.87;;
38117;SDS011;23928;47.562;7.508;2023-12-04T07:49:33;46.20;;;23.60;;
38117;SDS011;23928;47.562;7.508;2023-12-04T07:51:59;54.50;;;25.37;;
38117;SDS011;23928;47.562;7.508;2023-12-04T07:54:25;37.73;;;16.87;;
38117;SDS011;23928;47.562;7.508;2023-12-04T07:56:51;32.30;;;15.20;;
38117;SDS011;23928;47.562;7.508;2023-12-04T07:59:18;37.33;;;17.47;;
38117;SDS011;23928;47.562;7.508;2023-12-04T08:01:44;37.57;;;15.57;;
38117;SDS011;23928;47.562;7.508;2023-12-04T08:04:09;39.57;;;16.57;;
38117;SDS011;23928;47.562;7.508;2023-12-04T08:06:35;47.27;;;18.27;;
38117;SDS011;23928;47.562;7.508;2023-12-04T08:09:00;43.77;;;17.00;;
38117;SDS011;23928;47.562;7.508;2023-12-04T08:11:27;44.07;;;18.73;;
38117;SDS011;23928;47.562;7.508;2023-12-04T08:13:53;43.33;;;16.43;;
38117;SDS011;23928;47.562;7.508;2023-12-04T08:16:18;54.07;;;22.77;;
38117;SDS011;23928;47.562;7.508;2023-12-04T08:18:45;37.50;;;16.47;;
38117;SDS011;23928;47.562;7.508;2023-12-04T08:21:10;44.67;;;17.50;;
38117;SDS011;23928;47.562;7.508;2023-12-04T08:23:36;38.67;;;16.40;;
38117;SDS011;23928;47.562;7.508;2023-12-04T08:26:02;33.43;;;15.20;;
38117;SDS011;23928;47.562;7.508;2023-12-04T08:28:29;57.07;;;26.07;;
38117;SDS011;23928;47.562;7.508;2023-12-04T08:30:54;32.03;;;14.93;;
38117;SDS011;23928;47.562;7.508;2023-12-04T08:33:20;41.30;;;18.97;;
38117;SDS011;23928;47.562;7.508;2023-12-04T08:35:46;38.07;;;15.93;;
38117;SDS011;23928;47.562;7.508;2023-12-04T08:38:12;35.87;;;15.90;;
38117;SDS011;23928;47.562;7.508;2023-12-04T08:40:37;34.50;;;14.37;;
38117;SDS011;23928;47.562;7.508;2023-12-04T08:43:03;37.23;;;16.50;;
38117;SDS011;23928;47.562;7.508;2023-12-04T08:45:29;33.40;;;15.07;;
38117;SDS011;23928;47.562;7.508;2023-12-04T08:47:55;35.67;;;14.70;;
38117;SDS011;23928;47.562;7.508;2023-12-04T08:50:20;37.23;;;15.53;;
38117;SDS011;23928;47.562;7.508;2023-12-04T08:52:46;30.20;;;14.93;;
38117;SDS011;23928;47.562;7.508;2023-12-04T08:55:11;30.60;;;13.77;;
38117;SDS011;23928;47.562;7.508;2023-12-04T08:57:37;27.83;;;13.60;;
38117;SDS011;23928;47.562;7.508;2023-12-04T09:00:03;30.10;;;14.23;;
38117;SDS011;23928;47.562;7.508;2023-12-04T09:02:29;29.93;;;14.47;;
38117;SDS011;23928;47.562;7.508;2023-12-04T09:04:56;28.87;;;13.37;;
38117;SDS011;23928;47.562;7.508;2023-12-04T09:07:21;29.67;;;14.13;;
38117;SDS011;23928;47.562;7.508;2023-12-04T09:09:47;35.47;;;14.50;;
38117;SDS011;23928;47.562;7.508;2023-12-04T09:12:13;35.00;;;15.43;;
38117;SDS011;23928;47.562;7.508;2023-12-04T09:14:39;32.47;;;14.63;;
38117;SDS011;23928;47.562;7.508;2023-12-04T09:17:06;28.40;;;13.87;;
38117;SDS011;23928;47.562;7.508;2023-12-04T09:19:32;33.00;;;15.13;;
38117;SDS011;23928;47.562;7.508;2023-12-04T09:21:58;31.30;;;14.70;;
38117;SDS011;23928;47.562;7.508;2023-12-04T09:24:24;30.60;;;13.60;;
38117;SDS011;23928;47.562;7.508;2023-12-04T09:26:49;32.30;;;14.03;;
38117;SDS011;23928;47.562;7.508;2023-12-04T09:29:15;33.60;;;13.93;;
38117;SDS011;23928;47.562;7.508;2023-12-04T09:31:41;34.10;;;13.00;;
38117;SDS011;23928;47.562;7.508;2023-12-04T09:34:07;33.47;;;14.43;;
38117;SDS011;23928;47.562;7.508;2023-12-04T09:36:33;34.53;;;16.50;;
38117;SDS011;23928;47.562;7.508;2023-12-04T09:38:59;37.43;;;15.70;;
38117;SDS011;23928;47.562;7.508;2023-12-04T09:41:25;40.43;;;18.63;;
38117;SDS011;23928;47.562;7.508;2023-12-04T09:43:51;37.57;;;15.73;;
38117;SDS011;23928;47.562;7.508;2023-12-04T09:46:17;36.70;;;15.90;;
38117;SDS011;23928;47.562;7.508;2023-12-04T09:48:43;36.47;;;16.37;;
38117;SDS011;23928;47.562;7.508;2023-12-04T09:51:09;33.70;;;15.73;;
38117;SDS011;23928;47.562;7.508;2023-12-04T09:53:35;32.07;;;15.60;;
38117;SDS011;23928;47.562;7.508;2023-12-04T09:56:02;34.80;;;13.43;;
38117;SDS011;23928;47.562;7.508;2023-12-04T09:58:28;34.07;;;14.93;;
38117;SDS011;23928;47.562;7.508;2023-12-04T10:00:57;31.63;;;14.13;;
38117;SDS011;23928;47.562;7.508;2023-12-04T10:03:25;30.67;;;14.67;;
38117;SDS011;23928;47.562;7.508;2023-12-04T10:05:51;34.43;;;14.37;;
38117;SDS011;23928;47.562;7.508;2023-12-04T10:08:19;29.13;;;14.10;;
38117;SDS011;23928;47.562;7.508;2023-12-04T10:10:44;31.10;;;15.03;;
38117;SDS011;23928;47.562;7.508;2023-12-04T10:13:10;32.33;;;14.77;;
38117;SDS011;23928;47.562;7.508;2023-12-04T10:15:45;34.97;;;15.20;;
38117;SDS011;23928;47.562;7.508;2023-12-04T10:20:52;30.40;;;14.77;;
38117;SDS011;23928;47.562;7.508;2023-12-04T10:23:19;30.77;;;14.10;;
38117;SDS011;23928;47.562;7.508;2023-12-04T10:25:45;31.03;;;15.07;;
38117;SDS011;23928;47.562;7.508;2023-12-04T10:28:11;28.77;;;14.03;;
38117;SDS011;23928;47.562;7.508;2023-12-04T10:30:38;27.37;;;13.80;;
38117;SDS011;23928;47.562;7.508;2023-12-04T10:33:05;29.17;;;13.87;;
38117;SDS011;23928;47.562;7.508;2023-12-04T10:35:32;26.77;;;13.23;;
38117;SDS011;23928;47.562;7.508;2023-12-04T10:38:01;29.83;;;13.27;;
38117;SDS011;23928;47.562;7.508;2023-12-04T10:40:31;25.87;;;11.63;;
38117;SDS011;23928;47.562;7.508;2023-12-04T10:45:41;31.57;;;13.37;;
38117;SDS011;23928;47.562;7.508;2023-12-04T10:48:08;29.03;;;12.73;;
38117;SDS011;23928;47.562;7.508;2023-12-04T10:50:39;33.87;;;14.03;;
38117;SDS011;23928;47.562;7.508;2023-12-04T10:53:06;28.10;;;13.10;;
38117;SDS011;23928;47.562;7.508;2023-12-04T10:55:34;28.70;;;12.20;;
38117;SDS011;23928;47.562;7.508;2023-12-04T10:58:01;23.43;;;12.47;;
38117;SDS011;23928;47.562;7.508;2023-12-04T11:00:30;25.07;;;12.30;;
38117;SDS011;23928;47.562;7.508;2023-12-04T11:03:00;22.27;;;11.30;;
38117;SDS011;23928;47.562;7.508;2023-12-04T11:05:39;33.23;;;13.37;;
38117;SDS011;23928;47.562;7.508;2023-12-04T11:08:06;25.23;;;12.00;;
38117;SDS011;23928;47.562;7.508;2023-12-04T11:10:36;21.83;;;11.53;;
38117;SDS011;23928;47.562;7.508;2023-12-04T11:13:15;27.57;;;12.77;;
38117;SDS011;23928;47.562;7.508;2023-12-04T11:18:43;27.27;;;13.43;;
38117;SDS011;23928;47.562;7.508;2023-12-04T11:21:13;29.33;;;13.93;;
38117;SDS011;23928;47.562;7.508;2023-12-04T11:23:40;23.60;;;12.43;;
38117;SDS011;23928;47.562;7.508;2023-12-04T11:26:07;23.50;;;12.00;;
38117;SDS011;23928;47.562;7.508;2023-12-04T11:28:34;26.47;;;12.73;;
38117;SDS011;23928;47.562;7.508;2023-12-04T11:31:03;24.73;;;12.90;;
38117;SDS011;23928;47.562;7.508;2023-12-04T11:33:34;28.30;;;14.37;;
38117;SDS011;23928;47.562;7.508;2023-12-04T11:36:10;26.70;;;13.33;;
38117;SDS011;23928;47.562;7.508;2023-12-04T11:38:37;23.57;;;11.77;;
38117;SDS011;23928;47.562;7.508;2023-12-04T11:41:22;27.40;;;13.20;;
38117;SDS011;23928;47.562;7.508;2023-12-04T11:43:49;28.57;;;13.93;;
38117;SDS011;23928;47.562;7.508;2023-12-04T11:46:19;29.57;;;13.53;;
38117;SDS011;23928;47.562;7.508;2023-12-04T11:48:48;25.60;;;13.20;;
38117;SDS011;23928;47.562;7.508;2023-12-04T11:51:15;27.00;;;12.10;;
38117;SDS011;23928;47.562;7.508;2023-12-04T11:54:01;27.93;;;13.53;;
38117;SDS011;23928;47.562;7.508;2023-12-04T11:56:29;28.13;;;13.33;;
38117;SDS011;23928;47.562;7.508;2023-12-04T11:58:55;26.77;;;14.23;;
38117;SDS011;23928;47.562;7.508;2023-12-04T12:01:37;29.27;;;14.03;;
38117;SDS011;23928;47.562;7.508;2023-12-04T12:04:04;29.47;;;13.73;;
38117;SDS011;23928;47.562;7.508;2023-12-04T12:06:30;26.83;;;13.10;;
38117;SDS011;23928;47.562;7.508;2023-12-04T12:08:56;27.97;;;13.13;;
38117;SDS011;23928;47.562;7.508;2023-12-04T12:11:25;26.93;;;14.20;;
38117;SDS011;23928;47.562;7.508;2023-12-04T12:13:52;25.40;;;13.07;;
38117;SDS011;23928;47.562;7.508;2023-12-04T12:16:18;24.70;;;12.90;;
38117;SDS011;23928;47.562;7.508;2023-12-04T12:18:44;24.70;;;13.63;;
38117;SDS011;23928;47.562;7.508;2023-12-04T12:21:10;24.60;;;13.10;;
38117;SDS011;23928;47.562;7.508;2023-12-04T12:23:35;24.03;;;12.53;;
38117;SDS011;23928;47.562;7.508;2023-12-04T12:26:01;29.43;;;13.73;;
38117;SDS011;23928;47.562;7.508;2023-12-04T12:28:28;26.73;;;12.73;;
38117;SDS011;23928;47.562;7.508;2023-12-04T12:30:54;27.90;;;13.63;;
38117;SDS011;23928;47.562;7.508;2023-12-04T12:33:20;28.03;;;13.90;;
38117;SDS011;23928;47.562;7.508;2023-12-04T12:35:48;25.87;;;12.37;;
38117;SDS011;23928;47.562;7.508;2023-12-04T12:38:14;26.03;;;12.70;;
38117;SDS011;23928;47.562;7.508;2023-12-04T12:40:40;24.80;;;12.17;;
38117;SDS011;23928;47.562;7.508;2023-12-04T12:43:07;29.50;;;13.37;;
38117;SDS011;23928;47.562;7.508;2023-12-04T12:45:42;24.67;;;11.93;;
38117;SDS011;23928;47.562;7.508;2023-12-04T12:48:13;23.10;;;12.60;;
38117;SDS011;23928;47.562;7.508;2023-12-04T12:50:39;22.83;;;12.67;;
38117;SDS011;23928;47.562;7.508;2023-12-04T12:53:04;22.90;;;11.57;;
38117;SDS011;23928;47.562;7.508;2023-12-04T12:55:30;26.00;;;11.57;;
38117;SDS011;23928;47.562;7.508;2023-12-04T12:57:56;22.60;;;12.07;;
38117;SDS011;23928;47.562;7.508;2023-12-04T13:00:22;26.17;;;12.27;;
38117;SDS011;23928;47.562;7.508;2023-12-04T13:02:48;24.33;;;12.80;;
38117;SDS011;23928;47.562;7.508;2023-12-04T13:05:16;22.63;;;11.30;;
38117;SDS011;23928;47.562;7.508;2023-12-04T13:07:44;23.33;;;12.37;;
38117;SDS011;23928;47.562;7.508;2023-12-04T13:10:10;24.00;;;12.00;;
38117;SDS011;23928;47.562;7.508;2023-12-04T13:12:36;24.33;;;11.70;;
38117;SDS011;23928;47.562;7.508;2023-12-04T13:15:01;26.73;;;11.80;;
38117;SDS011;23928;47.562;7.508;2023-12-04T13:17:28;24.33;;;12.13;;
38117;SDS011;23928;47.562;7.508;2023-12-04T13:19:54;26.60;;;12.57;;
38117;SDS011;23928;47.562;7.508;2023-12-04T13:22:19;24.97;;;12.33;;
38117;SDS011;23928;47.562;7.508;2023-12-04T13:24:45;25.13;;;12.10;;
38117;SDS011;23928;47.562;7.508;2023-12-04T13:27:11;25.50;;;12.77;;
38117;SDS011;23928;47.562;7.508;2023-12-04T13:29:36;25.07;;;12.60;;
38117;SDS011;23928;47.562;7.508;2023-12-04T13:32:02;22.20;;;12.30;;
38117;SDS011;23928;47.562;7.508;2023-12-04T13:34:29;30.47;;;13.60;;
38117;SDS011;23928;47.562;7.508;2023-12-04T13:36:54;25.17;;;12.97;;
38117;SDS011;23928;47.562;7.508;2023-12-04T13:39:21;30.30;;;12.93;;
38117;SDS011;23928;47.562;7.508;2023-12-04T13:41:52;29.30;;;12.57;;
38117;SDS011;23928;47.562;7.508;2023-12-04T13:44:36;24.83;;;11.90;;
38117;SDS011;23928;47.562;7.508;2023-12-04T13:47:02;26.57;;;12.93;;
38117;SDS011;23928;47.562;7.508;2023-12-04T13:49:28;25.33;;;12.47;;
38117;SDS011;23928;47.562;7.508;2023-12-04T13:51:54;25.00;;;11.60;;
38117;SDS011;23928;47.562;7.508;2023-12-04T13:54:21;26.20;;;12.83;;
38117;SDS011;23928;47.562;7.508;2023-12-04T13:56:52;26.50;;;12.13;;
38117;SDS011;23928;47.562;7.508;2023-12-04T13:59:19;21.17;;;11.17;;
38117;SDS011;23928;47.562;7.508;2023-12-04T14:01:46;24.40;;;10.77;;
38117;SDS011;23928;47.562;7.508;2023-12-04T14:04:14;23.73;;;12.33;;
38117;SDS011;23928;47.562;7.508;2023-12-04T14:06:40;23.83;;;11.63;;
38117;SDS011;23928;47.562;7.508;2023-12-04T14:09:06;23.83;;;12.43;;
38117;SDS011;23928;47.562;7.508;2023-12-04T14:11:42;23.27;;;11.73;;
38117;SDS011;23928;47.562;7.508;2023-12-04T14:14:12;22.07;;;12.17;;
38117;SDS011;23928;47.562;7.508;2023-12-04T14:16:38;22.20;;;12.00;;
38117;SDS011;23928;47.562;7.508;2023-12-04T14:19:05;24.47;;;12.07;;
38117;SDS011;23928;47.562;7.508;2023-12-04T14:21:30;23.10;;;11.17;;
38117;SDS011;23928;47.562;7.508;2023-12-04T14:23:56;24.43;;;11.60;;
38117;SDS011;23928;47.562;7.508;2023-12-04T14:26:22;24.17;;;12.00;;